• Join FlightAware (Why Join?)
  • Login
  • US Flag 
06:34PM EST


 

Airport Tracker/Info


-or-


 

Live Flight TrackerFlight Track Log ✈ N566UA ✈ 24-Jul-2013 ✈ KDEN - KBOS

Flight Track Log - Related Links

Times and Time Zones

All times are in EDT time to prevent confusion due to time zone crossing. See the N566UA flight status page for this flight to view local times or setup timezone preferences in your user account.

Time Position Orientation Groundspeed Altitude Reporting Facility
EDT Latitude Longitude Course Direction KTS MPH feet Rate Location/Type
10:31PM 39.7833 -104.6333 159° South 220 253 7,500  Level Denver TRACON
10:32PM 39.7167 -104.6000 159° South 253 291 9,400 1,620 Climbing Denver TRACON
10:33PM 39.6456 -104.5158 138° Southeast 309 356 11,300 1,500 Climbing Denver Center
10:34PM 39.6428 -104.3922 92° East 344 396 13,000 1,800 Climbing Denver Center
10:35PM 39.6414 -104.2814 91° East 362 417 15,100 2,340 Climbing Denver Center
10:37PM 39.6381 -104.1122 91° East 380 437 17,900 2,160 Climbing Denver Center
10:38PM 39.6142 -103.9744 103° East 394 453 19,600 1,800 Climbing Denver Center
10:39PM 39.5931 -103.8544 103° East 404 465 21,600 2,220 Climbing Denver Center
10:40PM 39.5850 -103.6675 93° East 398 458 24,300 2,040 Climbing Denver Center
10:41PM 39.5850 -103.5142 90° East 425 489 25,900 1,440 Climbing Denver Center
10:42PM 39.5883 -103.3544 88° East 443 510 27,300 1,260 Climbing Denver Center
10:43PM 39.5906 -103.1900 89° East 456 525 28,600 1,380 Climbing Denver Center
10:44PM 39.5950 -103.0239 88° East 461 531 30,200 1,260 Climbing Denver Center
10:45PM 39.6014 -102.8569 87° East 465 535 31,300 1,080 Climbing Denver Center
10:46PM 39.6075 -102.6872 87° East 472 543 32,500 900 Climbing Denver Center
10:47PM 39.6161 -102.5342 86° East 477 549 33,200 1,020 Climbing Denver Center
10:48PM 39.6297 -102.3097 85° East 490 564 34,600 1,080 Climbing Denver Center
10:49PM 39.6394 -102.1431 86° East 486 559 35,500 720 Climbing Denver Center
10:50PM 39.6492 -101.9450 86° East 492 566 36,200 480 Climbing Denver Center
10:51PM 39.6572 -101.7714 86° East 504 580 36,600 300 Climbing Denver Center
10:52PM 39.6744 -101.5961 83° East 512 589 36,900 180 Climbing Denver Center
10:53PM 39.7050 -101.3953 79° East 510 587 37,000  Climbing Denver Center
10:54PM 39.7353 -101.1933 79° East 512 589 37,000  Level Denver Center
10:55PM 39.7617 -101.0197 79° East 514 592 37,000  Level Denver Center
10:56PM 39.7925 -100.8186 79° East 510 587 37,000  Level Denver Center
10:57PM 39.8181 -100.6447 79° East 512 589 37,000  Level Denver Center
10:58PM 39.8525 -100.4097 79° East 519 597 37,000  Level Denver Center
10:59PM 39.8761 -100.2439 79° East 519 597 37,000  Level Denver Center
11:01PM 39.9022 -100.0597 79° East 518 596 37,000  Level Denver Center
11:02PM 39.9467 -99.8044 77° East 519 597 37,000  Level Denver Center
11:03PM 39.9864 -99.6258 74° East 516 594 37,000  Level Denver Center
11:04PM 40.0272 -99.4478 73° East 515 593 37,000  Level Denver Center
11:05PM 40.0672 -99.2692 74° East 516 594 37,000  Level Denver Center
11:06PM 40.1081 -99.0892 73° East 518 596 37,000  Level Denver Center
11:07PM 40.1408 -98.9489 73° East 516 594 37,000  Level Minneapolis Center
11:08PM 40.1872 -98.7339 74° East 515 593 37,000  Level Minneapolis Center
11:09PM 40.2258 -98.5575 74° East 510 587 37,000  Level Minneapolis Center
11:10PM 40.2639 -98.3819 74° East 506 582 37,000  Level Minneapolis Center
11:11PM 40.3019 -98.2042 74° East 508 585 37,000  Level Minneapolis Center
11:12PM 40.3464 -97.9947 74° East 502 578 37,000  Level Minneapolis Center
11:13PM 40.3836 -97.8208 74° East 500 575 37,000  Level Minneapolis Center
11:14PM 40.4211 -97.6472 74° East 497 572 37,000  Level Minneapolis Center
11:15PM 40.4561 -97.4739 75° East 495 570 37,000  Level Minneapolis Center
11:16PM 40.4978 -97.2753 75° East 497 572 37,000  Level Minneapolis Center
11:17PM 40.5347 -97.1006 74° East 497 572 37,000  Level Minneapolis Center
11:18PM 40.5683 -96.9247 76° East 498 573 37,000  Level Minneapolis Center
11:19PM 40.6050 -96.7475 75° East 502 578 37,000  Level Minneapolis Center
11:20PM 40.6469 -96.5322 76° East 507 583 37,000  Level Minneapolis Center
11:21PM 40.6761 -96.3875 75° East 509 586 37,000  Level Minneapolis Center
11:22PM 40.7253 -96.1325 76° East 517 595 37,000 300 Level Minneapolis Center
11:23PM 40.7608 -95.9503 75° East 518 596 37,700 840 Climbing Minneapolis Center
11:24PM 40.7950 -95.7708 76° East 511 588 38,800 600 Climbing Minneapolis Center
11:25PM 40.8275 -95.5956 76° East 502 578 39,000 60 Climbing Minneapolis Center
11:26PM 40.8622 -95.4167 76° East 503 579 39,000  Level Minneapolis Center
11:27PM 40.8953 -95.2414 76° East 499 574 39,000  Level Minneapolis Center
11:28PM 40.9289 -95.0653 76° East 497 572 39,000  Level Minneapolis Center
11:29PM 40.9603 -94.8900 77° East 494 568 39,000  Level Minneapolis Center
11:30PM 40.9992 -94.6769 76° East 496 571 39,000  Level Minneapolis Center
11:31PM 41.0244 -94.5322 77° East 496 571 39,000  Level Minneapolis Center
11:32PM 41.0611 -94.3183 77° East 498 573 39,000  Level Minneapolis Center
11:34PM 41.0869 -94.1764 76° East 499 574 39,000  Level Minneapolis Center
11:35PM 41.1247 -93.9611 77° East 501 577 39,000  Level Minneapolis Center
11:36PM 41.1558 -93.7811 77° East 502 578 39,000  Level Minneapolis Center
11:37PM 41.1867 -93.6000 77° East 503 579 39,000  Level Minneapolis Center
11:38PM 41.2189 -93.4150 77° East 510 587 39,000  Level Minneapolis Center
11:39PM 41.2481 -93.2303 78° East 513 590 39,000  Level Minneapolis Center
11:40PM 41.2853 -93.0111 77° East 512 589 39,000  Level Minneapolis Center
11:41PM 41.3086 -92.8636 78° East 509 586 39,000  Level Chicago Center
11:42PM 41.3450 -92.6439 77° East 508 585 39,000  Level Chicago Center
11:43PM 41.3736 -92.4603 78° East 508 585 39,000  Level Chicago Center
11:44PM 41.4028 -92.2769 78° East 506 582 39,000  Level Chicago Center
11:45PM 41.4306 -92.0981 78° East 501 577 39,000  Level Chicago Center
11:46PM 41.4578 -91.9192 78° East 501 577 39,000  Level Chicago Center
11:47PM 41.4856 -91.7408 78° East 499 574 39,000  Level Chicago Center
11:48PM 41.5119 -91.5617 79° East 498 573 39,000  Level Chicago Center
11:49PM 41.5397 -91.3828 78° East 499 574 39,000  Level Chicago Center
11:50PM 41.5658 -91.2022 79° East 502 578 39,000  Level Chicago Center
11:51PM 41.5969 -90.9869 79° East 501 577 39,000  Level Chicago Center
11:52PM 41.6239 -90.8072 79° East 499 574 39,000  Level Chicago Center
11:53PM 41.6494 -90.6278 79° East 499 574 39,000  Level Chicago Center
11:54PM 41.6758 -90.4372 79° East 500 575 39,000  Level Chicago Center
11:55PM 41.7008 -90.2564 79° East 495 570 39,000  Level Chicago Center
11:56PM 41.7269 -90.0725 79° East 500 575 39,000  Level Chicago Center
11:57PM 41.7503 -89.8958 80° East 485 558 39,000  Level Chicago Center
11:58PM 41.7736 -89.7158 80° East 487 560 39,000  Level Chicago Center
11:59PM 41.7969 -89.5436 80° East 484 557 39,000  Level Chicago Center
12:00AM 41.8194 -89.3661 80° East 485 558 39,000  Level Chicago Center
12:01AM 41.8419 -89.1914 80° East 476 548 39,000  Level Chicago Center
12:02AM 41.8625 -89.0172 81° East 476 548 39,000  Level Chicago Center
12:03AM 41.8847 -88.8433 80° East 477 549 39,000  Level Chicago Center
12:04AM 41.9072 -88.6675 80° East 479 551 39,000  Level Chicago Center
12:05AM 41.9278 -88.4914 81° East 478 550 39,000  Level Chicago Center
12:06AM 41.9497 -88.3136 81° East 482 555 39,000  Level Chicago Center
12:07AM 41.9744 -88.1014 81° East 479 551 39,000  Level Chicago Center
12:08AM 41.9958 -87.9253 81° East 478 550 39,000  Level Chicago Center
12:09AM 42.0158 -87.7481 81° East 479 551 39,000  Level Chicago Center
12:10AM 42.0358 -87.5717 81° East 478 550 39,000  Level Chicago Center
12:11AM 42.0544 -87.3967 82° East 475 547 39,000  Level Chicago Center
12:12AM 42.0747 -87.2208 81° East 478 550 39,000  Level Chicago Center
12:13AM 42.0936 -87.0458 82° East 475 547 39,000  Level Chicago Center
12:14AM 42.1117 -86.8689 82° East 477 549 39,000  Level Chicago Center
12:15AM 42.1322 -86.6828 81° East 476 548 39,000  Level Chicago Center
12:16AM 42.1481 -86.5350 82° East 479 551 39,000  Level Chicago Center
12:17AM 42.1656 -86.3583 82° East 478 550 39,000  Level Chicago Center
12:18AM 42.1831 -86.1833 82° East 473 544 39,000  Level Chicago Center
12:19AM 42.2014 -86.0044 82° East 479 551 39,000  Level Chicago Center
12:20AM 42.2200 -85.8117 83° East 480 552 39,000  Level Chicago Center
12:21AM 42.2375 -85.6325 82° East 483 556 39,000  Level Chicago Center
12:22AM 42.2544 -85.4511 83° East 488 562 39,000  Level Chicago Center
12:23AM 42.2725 -85.2703 82° East 489 563 39,000  Level Chicago Center
12:24AM 42.2892 -85.0881 83° East 491 565 39,000 -360 Level Chicago Center
12:26AM 42.2979 -84.8448 83° East  Level FlightAware Approximate
12:33AM 42.4060 -83.6073 83° East  Level FlightAware Approximate
12:34AM 42.4203 -83.4301 84° East  Level FlightAware Approximate
12:35AM 42.4344 -83.2529 84° East  Level FlightAware Approximate
12:36AM 42.4476 -83.0755 84° East  Level FlightAware Approximate
12:37AM 42.4605 -82.8981 84° East  Level FlightAware Approximate
12:38AM 42.4731 -82.7206 84° East  Level FlightAware Approximate
12:39AM 42.4855 -82.5430 85° East  Level FlightAware Approximate
12:40AM 42.4976 -82.3653 85° East  Level FlightAware Approximate
12:41AM 42.5094 -82.1876 85° East  Level FlightAware Approximate
12:42AM 42.5209 -82.0098 85° East  Level FlightAware Approximate
12:43AM 42.5322 -81.8319 85° East  Level FlightAware Approximate
12:44AM 42.5432 -81.6540 85° East  Level FlightAware Approximate
12:45AM 42.5539 -81.4760 85° East  Level FlightAware Approximate
12:46AM 42.5644 -81.2980 85° East  Level FlightAware Approximate
12:47AM 42.5745 -81.1198 86° East  Level FlightAware Approximate
12:48AM 42.5844 -80.9417 86° East  Level FlightAware Approximate
12:49AM 42.5940 -80.7635 86° East  Level FlightAware Approximate
12:50AM 42.6029 -80.5851 87° East  Level FlightAware Approximate
12:51AM 42.6107 -80.4067 87° East  Level FlightAware Approximate
12:52AM 42.6181 -80.2282 87° East  Level FlightAware Approximate
12:53AM 42.6254 -80.0497 87° East  Level FlightAware Approximate
12:54AM 42.6323 -79.8711 87° East  Level FlightAware Approximate
12:55AM 42.6390 -79.6925 87° East  Level FlightAware Approximate
12:56AM 42.6453 -79.5139 87° East  Level FlightAware Approximate
12:57AM 42.6515 -79.3352 87° East  Level FlightAware Approximate
12:58AM 42.6573 -79.1565 87° East  Level FlightAware Approximate
12:59AM 42.6628 -78.9778 88° East  Level FlightAware Approximate
01:00AM 42.6681 -78.7990 88° East  Level FlightAware Approximate
01:01AM 42.6731 -78.6202 88° East  Level FlightAware Approximate
01:02AM 42.6778 -78.4414 88° East  Level FlightAware Approximate
01:03AM 42.6822 -78.2625 88° East  Level FlightAware Approximate
01:04AM 42.6886 -78.0837 87° East  Level FlightAware Approximate
01:05AM 42.6953 -77.9050 87° East  Level FlightAware Approximate
01:06AM 42.7018 -77.7262 87° East  Level FlightAware Approximate
01:07AM 42.7081 -77.5474 87° East  Level FlightAware Approximate
01:08AM 42.7140 -77.3685 87° East  Level FlightAware Approximate
01:09AM 42.7197 -77.1896 87° East  Level FlightAware Approximate
01:10AM 42.7251 -77.0107 88° East  Level FlightAware Approximate
01:11AM 42.7302 -76.8317 88° East  Level FlightAware Approximate
01:12AM 42.7344 -76.6527 89° East  Level FlightAware Approximate
01:13AM 42.7372 -76.4736 89° East  Level FlightAware Approximate
01:14AM 42.7398 -76.2945 89° East  Level FlightAware Approximate
01:15AM 42.7421 -76.1154 89° East  Level FlightAware Approximate
01:16AM 42.7440 -75.9363 89° East  Level FlightAware Approximate
01:17AM 42.7458 -75.7572 89° East  Level FlightAware Approximate
01:18AM 42.7472 -75.5780 89° East  Level FlightAware Approximate
01:19AM 42.7483 -75.3989 89° East  Level FlightAware Approximate
01:20AM 42.7492 -75.2197 90° East  Level FlightAware Approximate
01:21AM 42.7498 -75.0406 90° East  Level FlightAware Approximate
01:22AM 42.7501 -74.8614 90° East  Level FlightAware Approximate
01:23AM 42.7501 -74.6822 90° East  Level FlightAware Approximate
01:24AM 42.7488 -74.5031 92° East  Level FlightAware Approximate
01:25AM 42.7441 -74.3241 92° East  Level FlightAware Approximate
01:26AM 42.7391 -74.1451 92° East  Level FlightAware Approximate
01:27AM 42.7338 -73.9661 92° East  Level FlightAware Approximate
01:28AM 42.7321 -73.7871 98° East  Level FlightAware Approximate
01:29AM 42.7144 -73.6096 98° East  Level FlightAware Approximate
01:30AM 42.6962 -73.4323 98° East  Level FlightAware Approximate
01:31AM 42.6766 -73.2553 99° East  Level FlightAware Approximate
01:32AM 42.6667 -73.0774 90° East  Level FlightAware Approximate
01:33AM 42.6373 -72.9034 105° East  Level FlightAware Approximate
01:34AM 42.6234 -72.7263 98° East  Level FlightAware Approximate
01:35AM 42.6037 -72.5495 99° East  Level FlightAware Approximate
01:36AM 42.5756 -72.3752 100° East  Level FlightAware Approximate
01:37AM 42.5522 -72.1994 100° East  Level FlightAware Approximate
01:37AM 42.5333 -71.9500 90° East 348 400 13,000  Level KA90
01:38AM 42.5333 -72.0241 90° East  Level FlightAware Approximate
01:38AM 42.5167 -71.7833 98° East 338 389 11,400  Level KA90
01:39AM 42.5155 -71.8475 99° East  Level FlightAware Approximate
01:39AM 42.5167 -71.6667 90° East 312 359 11,000  Level KA90
01:40AM 42.5000 -71.6707 90° East  Level FlightAware Approximate
01:40AM 42.5000 -71.5500 101° East 303 349 10,600  Level KA90
01:41AM 42.4849 -71.4943 101° East  Level FlightAware Approximate
01:41AM 42.4833 -71.4500 103° East 295 339 9,800  Level KA90
01:42AM 42.4667 -71.3191 90° East  Level FlightAware Approximate
01:42AM 42.4833 -71.3333 90° East 293 337 9,000  Level KA90
01:43AM 42.4667 -71.2167 101° East 285 328 8,300 -720 Descending KA90
01:44AM 42.4667 -71.1167 90° East 283 326 7,500 -660 Descending KA90
01:45AM 42.4500 -71.0167 103° East 236 272 7,000 -660 Descending KA90
01:46AM 42.4167 -70.9500 124° Southeast 236 272 6,200 -780 Descending KA90
01:47AM 42.3667 -70.8833 135° Southeast 230 265 5,500 -840 Descending KA90
01:48AM 42.3333 -70.8167 124° Southeast 215 247 4,600 -840 Descending KA90
01:49AM 42.3000 -70.7667 132° Southeast 187 215 3,900 -900 Descending KA90
01:50AM 42.2667 -70.8167 228° Southwest 197 227 2,900 -840 Descending KA90
01:51AM 42.2667 -70.8833 270° West 172 198 2,300 -660 Descending KA90
01:52AM 42.3000 -70.9167 324° Northwest 134 154 1,600 -720 Descending KA90
01:53AM 42.3167 -70.9500 304° West 124 143 900 -660 Descending KA90
01:54AM 42.3500 -70.9833 324° Northwest 121 139 300 -600 Descending KA90
01:56AM 42.3500 -71.0000 North  Level FlightAware Approximate
02:03AM 42.3630 -71.0064 North  Level Estimated
02:04AM 42.3630 -71.0064 North  Level Estimated
02:05AM 42.3630 -71.0064 North  Level Estimated
02:06AM 42.3630 -71.0064 North  Level Estimated
02:07AM 42.3630 -71.0064 North  Level Estimated